Ahsahka, Idaho
Current Conditions -  °F | °C
As of 5:56 AM on Monday 22 Dec 2014 (Local Time) from KLWS Reporting Station
Overcast Overcast  
Wind Chill: 43°   Ceiling: 10000
Heat Index: 48°   Visibility: 10mi
Dew Point: 35°   Wind: 12mph
Humidity: 61%   Direction: 270°W
Pressure: 30.08"   Gusts: 17mph
Location:  46.51°N, 116.35°W
Report Text: KLWS 221356Z AUTO 27010G15KT 10SM FEW055 OVC100 09/02 A3008 RMK AO2 SLP189 T00890017
Loading
Personal Weather Stations






























Interactive Weather Map New forecast layout! Learn more

10-Day Weather Forecast

Advertisements
Track Severe Weather on mobile